Manisa, Turkey

6:53 PM EEST on August 01, 2014 (GMT +0300)
Manisa Organize Sanayi Airport (LTBZ) Elev 240 ft | 38.63 °N, 27.35 °E | Change Station

Current weather conditions updated 2 hours ago

Clear
Clear
93 °F
Feels Like 93 °F
N
9
Wind Variable Wind from WSW

Tomorrow is forecast to be Cooler than today.

Today
High -- | Low -- °F
--% Chance of Precip.
Yesterday
High -- | Low -- °F
Precip. -- in
6:11 AM 8:21 PM
Waxing Crescent, 27% visible
Pressure 29.74 in
Visibility -9999.0 miles
Clouds
Dew Point 45 °F
Humidity 19%
Rainfall 0.00 in
Snow Depth Not available.
UV Not available.
Pollen Not available.
Air Quality Not available.
Flu Activity Not available.
METAR LTBZ 011350Z 24008KT CAVOK 34/07 Q1007

More Conditions Fewer Conditions

Pressure 29.74 in
Visibility -9999.0 miles
Clouds
Dew Point 45 °F
Humidity 19%
Rainfall 0.00 in
Snow Depth Not available.
UV Not available.
Pollen Not available.
Air Quality Not available.
Flu Activity Not available.
METAR LTBZ 011350Z 24008KT CAVOK 34/07 Q1007

More Conditions Fewer Conditions

10-Day Weather Forecast

Almanac

Astronomy

Aug. 01, 2014 Rise Set
Actual Time 6:11 AM EEST 8:21 PM EEST
Civil Twilight 5:42 AM EEST 8:50 PM EEST
Nautical Twilight 5:05 AM EEST 9:26 PM EEST
Astronomical Twilight 4:26 AM EEST 10:05 PM EEST
Moon 11:12 AM EEST 10:59 PM EEST
Length of Visible Light 15h 08m
Length of Day
14h 09m
Tomorrow will be 1m 53s shorter.
Waxing Crescent, 27% of the Moon is Illuminated
Today
Waxing Crescent
Aug 3
First Quarter
Aug 10
Full
Aug 17
Last Quarter
Aug 25
New

Today's Extremes

Country Highs Country Lows

Community

WunderPhotos

Upload Photos

1,739,618 photos uploaded!

Nearby

Snow Depth

Not available.

Earthquake Activity

City Distance Mag. Time & Date
No recent earthquake activity has been reported nearby.
Minimum magnitude displayed is 2.5.

Coastal Water Temperatures

Place Temperature
No Stations Reporting

Nearby Weather Stations

There are no personal weather stations in this area.